Time;durP1;ratioP1;P1;durP2;ratioP2;P2;SDS_P1;SDS_P2;PMS_P1;PMS_P2;Temp;Humidity;BMP_temperature;BMP_pressure;BME280_temperature;BME280_humidity;BME280_pressure;Samples;Min_cycle;Max_cycle;Signal;HPM_P1;HPM_P2
2021/03/02 00:02:23;;;;;;;0.00;0.00;;;3.00;1.00;;;;;;5070355;28;20484;-69
2021/03/02 00:04:50;;;;;;;0.00;0.00;;;2.90;1.00;;;;;;5071290;28;20419;-69
2021/03/02 00:07:16;;;;;;;0.00;0.00;;;2.80;1.00;;;;;;5071252;28;20477;-69
2021/03/02 00:09:44;;;;;;;0.00;0.00;;;2.80;1.00;;;;;;5071049;28;20859;-69
2021/03/02 00:12:11;;;;;;;0.00;0.00;;;2.70;1.00;;;;;;5070843;28;20412;-69
2021/03/02 00:14:37;;;;;;;0.00;0.00;;;2.60;1.00;;;;;;5070981;28;20477;-69
2021/03/02 00:17:09;;;;;;;0.00;0.00;;;2.60;1.00;;;;;;5070600;28;20466;-70
2021/03/02 00:19:40;;;;;;;0.00;0.00;;;2.60;1.00;;;;;;5071109;28;20509;-69
2021/03/02 00:22:18;;;;;;;0.00;0.00;;;2.50;1.00;;;;;;5070424;28;20954;-69
2021/03/02 00:24:47;;;;;;;0.00;0.00;;;2.50;1.00;;;;;;5070913;28;20412;-69
2021/03/02 00:27:16;;;;;;;0.00;0.00;;;2.60;1.00;;;;;;5070706;28;20416;-69
2021/03/02 00:29:43;;;;;;;0.00;0.00;;;2.70;1.00;;;;;;5070822;28;20404;-69
2021/03/02 00:32:10;;;;;;;0.00;0.00;;;2.60;1.00;;;;;;5070619;28;20485;-69
2021/03/02 00:34:37;;;;;;;0.00;0.00;;;2.70;1.00;;;;;;5070779;28;20446;-69
2021/03/02 00:37:03;;;;;;;0.00;0.00;;;2.80;1.00;;;;;;5070898;28;20499;-69
2021/03/02 00:39:30;;;;;;;0.00;0.00;;;2.80;1.00;;;;;;5070393;28;20423;-69
2021/03/02 00:41:56;;;;;;;0.00;0.00;;;2.90;1.00;;;;;;5070388;28;20416;-69
2021/03/02 00:44:23;;;;;;;0.00;0.00;;;2.80;1.00;;;;;;5070717;28;20412;-69
2021/03/02 00:46:49;;;;;;;0.00;0.00;;;2.70;1.00;;;;;;5070819;28;20412;-69
2021/03/02 00:49:15;;;;;;;0.00;0.00;;;2.80;1.00;;;;;;5070737;28;20437;-69
2021/03/02 00:51:41;;;;;;;0.00;0.00;;;2.80;1.00;;;;;;5070258;28;20426;-69
2021/03/02 00:54:07;;;;;;;0.00;0.00;;;3.00;1.00;;;;;;5070609;28;20819;-69
2021/03/02 00:56:33;;;;;;;0.00;0.00;;;2.80;1.00;;;;;;5070466;28;20450;-69
2021/03/02 00:59:00;;;;;;;0.00;0.00;;;2.80;1.00;;;;;;5070709;28;20427;-69
2021/03/02 01:01:26;;;;;;;0.00;0.00;;;2.80;1.00;;;;;;5070097;28;20411;-69
2021/03/02 01:03:52;;;;;;;0.00;0.00;;;2.80;1.00;;;;;;5070466;28;20422;-69
2021/03/02 01:06:19;;;;;;;0.00;0.00;;;2.80;1.00;;;;;;5070701;28;20433;-69
2021/03/02 01:08:45;;;;;;;0.00;0.00;;;2.70;1.00;;;;;;5070253;28;20411;-69
2021/03/02 01:11:11;;;;;;;0.00;0.00;;;2.70;1.00;;;;;;5070163;28;20492;-70
2021/03/02 01:13:37;;;;;;;0.00;0.00;;;2.60;1.00;;;;;;5070635;28;20403;-69
2021/03/02 01:16:05;;;;;;;0.00;0.00;;;2.60;1.00;;;;;;5074338;28;20415;-70
2021/03/02 01:18:31;;;;;;;0.00;0.00;;;2.60;1.00;;;;;;5073804;28;20827;-69
2021/03/02 01:20:58;;;;;;;0.00;0.00;;;2.70;1.00;;;;;;5073884;28;20433;-69
2021/03/02 01:23:24;;;;;;;0.00;0.00;;;2.60;1.00;;;;;;5073780;28;20411;-69
2021/03/02 01:25:50;;;;;;;0.00;0.00;;;2.60;1.00;;;;;;5073928;28;20777;-69
2021/03/02 01:28:16;;;;;;;0.00;0.00;;;2.70;1.00;;;;;;5074029;28;20408;-69
2021/03/02 01:30:42;;;;;;;0.00;0.00;;;2.60;1.00;;;;;;5073572;28;20784;-70
2021/03/02 01:33:10;;;;;;;0.00;0.00;;;2.50;1.00;;;;;;5074018;28;20415;-69
2021/03/02 01:35:36;;;;;;;0.00;0.00;;;2.50;1.00;;;;;;5073805;28;20412;-69
2021/03/02 01:38:02;;;;;;;0.00;0.00;;;2.40;1.00;;;;;;5073675;28;20480;-69
2021/03/02 01:40:29;;;;;;;0.00;0.00;;;2.40;1.00;;;;;;5073657;28;20420;-69
2021/03/02 01:42:55;;;;;;;0.00;0.00;;;2.30;1.00;;;;;;5074472;28;20457;-70
2021/03/02 01:45:22;;;;;;;0.00;0.00;;;2.30;1.00;;;;;;5073778;28;20783;-69
2021/03/02 01:47:50;;;;;;;0.00;0.00;;;2.30;1.00;;;;;;5073384;28;20892;-70
2021/03/02 01:50:18;;;;;;;0.00;0.00;;;2.30;1.00;;;;;;5074357;28;20430;-70
2021/03/02 01:52:44;;;;;;;0.00;0.00;;;2.40;1.00;;;;;;5073173;28;20419;-70
2021/03/02 01:55:11;;;;;;;0.00;0.00;;;2.40;1.00;;;;;;5073918;28;20411;-69
2021/03/02 01:57:38;;;;;;;0.00;0.00;;;2.30;1.00;;;;;;5073701;28;20481;-69
2021/03/02 02:00:11;;;;;;;0.00;0.00;;;2.40;1.00;;;;;;5073205;28;20418;-69
2021/03/02 02:02:41;;;;;;;0.00;0.00;;;2.40;1.00;;;;;;5073242;28;20412;-69
2021/03/02 02:05:10;;;;;;;0.00;0.00;;;2.40;1.00;;;;;;5073477;28;20415;-70
2021/03/02 02:07:41;;;;;;;0.00;0.00;;;2.40;1.00;;;;;;5073771;28;20411;-70
2021/03/02 02:10:12;;;;;;;0.00;0.00;;;2.40;1.00;;;;;;5073240;28;20411;-69
2021/03/02 02:12:40;;;;;;;0.00;0.00;;;2.40;1.00;;;;;;5073978;28;20412;-69
2021/03/02 02:15:09;;;;;;;0.00;0.00;;;2.40;1.00;;;;;;5073718;28;20415;-70
2021/03/02 02:17:39;;;;;;;0.00;0.00;;;2.40;1.00;;;;;;5073193;28;20412;-70
2021/03/02 02:20:09;;;;;;;0.00;0.00;;;2.40;1.00;;;;;;5073895;28;20772;-69
2021/03/02 02:23:03;;;;;;;0.00;0.00;;;2.40;1.00;;;;;;5072706;28;20796;-69
2021/03/02 02:25:42;;;;;;;0.00;0.00;;;2.50;1.00;;;;;;5072566;28;20860;-69
2021/03/02 02:28:11;;;;;;;0.00;0.00;;;2.50;1.00;;;;;;5072601;28;20411;-69
2021/03/02 02:30:40;;;;;;;0.00;0.00;;;2.50;1.00;;;;;;5072546;28;20420;-69
2021/03/02 02:33:08;;;;;;;0.00;0.00;;;2.50;1.00;;;;;;5072910;28;20954;-69
2021/03/02 02:35:37;;;;;;;0.00;0.00;;;2.60;1.00;;;;;;5072891;28;20418;-69
2021/03/02 02:38:06;;;;;;;0.00;0.00;;;2.50;1.00;;;;;;5072579;28;20423;-69
2021/03/02 02:40:32;;;;;;;0.00;0.00;;;2.60;1.00;;;;;;5071998;28;20876;-69
2021/03/02 02:42:59;;;;;;;0.00;0.00;;;2.60;1.00;;;;;;5072609;28;20468;-69
2021/03/02 02:45:27;;;;;;;0.00;0.00;;;2.60;1.00;;;;;;5072510;28;20415;-69
2021/03/02 02:47:55;;;;;;;0.00;0.00;;;2.70;1.00;;;;;;5072671;28;20411;-69
2021/03/02 02:50:21;;;;;;;0.00;0.00;;;2.70;1.00;;;;;;5072307;28;20419;-69
2021/03/02 02:52:49;;;;;;;0.00;0.00;;;2.70;1.00;;;;;;5071946;28;20450;-69
2021/03/02 02:55:16;;;;;;;0.00;0.00;;;2.70;1.00;;;;;;5072065;28;20412;-69
2021/03/02 02:57:46;;;;;;;0.00;0.00;;;2.70;1.00;;;;;;5072319;28;20415;-69
2021/03/02 03:00:15;;;;;;;0.00;0.00;;;2.80;1.00;;;;;;5072395;28;20884;-69
2021/03/02 03:02:44;;;;;;;0.00;0.00;;;2.80;1.00;;;;;;5071801;28;20420;-69
2021/03/02 03:05:16;;;;;;;0.00;0.00;;;2.80;1.00;;;;;;5072150;28;20419;-69
2021/03/02 03:07:46;;;;;;;0.00;0.00;;;2.80;1.00;;;;;;5071611;28;20434;-69
2021/03/02 03:10:13;;;;;;;0.00;0.00;;;2.90;1.00;;;;;;5072294;28;20403;-69
2021/03/02 03:12:43;;;;;;;0.00;0.00;;;2.90;1.00;;;;;;5071450;28;20411;-69
2021/03/02 03:15:12;;;;;;;0.00;0.00;;;2.90;1.00;;;;;;5072090;28;20495;-69
2021/03/02 03:17:44;;;;;;;0.00;0.00;;;2.90;1.00;;;;;;5071939;28;20461;-70
2021/03/02 03:20:12;;;;;;;0.00;0.00;;;2.90;1.00;;;;;;5071843;28;20414;-69
2021/03/02 03:22:39;;;;;;;0.00;0.00;;;2.90;1.00;;;;;;5072205;28;20411;-70
2021/03/02 03:25:08;;;;;;;0.00;0.00;;;2.80;1.00;;;;;;5072473;28;20416;-70
2021/03/02 03:27:39;;;;;;;0.00;0.00;;;2.80;1.00;;;;;;5072333;28;20892;-70
2021/03/02 03:30:07;;;;;;;0.00;0.00;;;2.80;1.00;;;;;;5072180;28;20420;-70
2021/03/02 03:32:35;;;;;;;0.00;0.00;;;2.80;1.00;;;;;;5071768;28;20415;-70
2021/03/02 03:35:03;;;;;;;0.00;0.00;;;2.80;1.00;;;;;;5072324;28;20437;-70
2021/03/02 03:37:29;;;;;;;0.00;0.00;;;2.80;1.00;;;;;;5071411;28;20420;-70
2021/03/02 03:39:56;;;;;;;0.00;0.00;;;2.90;1.00;;;;;;5071947;28;20420;-69
2021/03/02 03:42:22;;;;;;;0.00;0.00;;;3.00;1.00;;;;;;5071023;28;20418;-70
2021/03/02 03:44:49;;;;;;;0.00;0.00;;;3.10;1.00;;;;;;5071504;28;20443;-69
2021/03/02 03:47:16;;;;;;;0.00;0.00;;;3.10;1.00;;;;;;5071211;28;20416;-70
2021/03/02 03:49:42;;;;;;;0.00;0.00;;;3.20;1.00;;;;;;5071639;28;20765;-69
2021/03/02 03:52:12;;;;;;;0.00;0.00;;;3.20;1.00;;;;;;5071200;28;20416;-69
2021/03/02 03:54:39;;;;;;;0.00;0.00;;;3.30;1.00;;;;;;5071639;28;20489;-69
2021/03/02 03:57:07;;;;;;;0.00;0.00;;;3.30;1.00;;;;;;5071593;28;20512;-70
2021/03/02 03:59:34;;;;;;;0.00;0.00;;;3.40;1.00;;;;;;5071110;28;20431;-69
2021/03/02 04:02:01;;;;;;;0.00;0.00;;;3.40;1.00;;;;;;5070833;28;20447;-69
2021/03/02 04:04:27;;;;;;;0.00;0.00;;;3.50;1.00;;;;;;5071239;28;20499;-69
2021/03/02 04:06:55;;;;;;;0.00;0.00;;;3.50;1.00;;;;;;5071435;28;20411;-70
2021/03/02 04:09:23;;;;;;;0.00;0.00;;;3.50;1.00;;;;;;5070909;28;20411;-69
2021/03/02 04:11:49;;;;;;;0.00;0.00;;;3.40;1.00;;;;;;5070687;28;20411;-69
2021/03/02 04:14:15;;;;;;;0.00;0.00;;;3.40;1.00;;;;;;5070888;28;20416;-69
2021/03/02 04:16:43;;;;;;;0.00;0.00;;;3.40;1.00;;;;;;5070888;28;20419;-69
2021/03/02 04:19:09;;;;;;;0.00;0.00;;;3.40;1.00;;;;;;5071075;28;20423;-69
2021/03/02 04:21:35;;;;;;;0.00;0.00;;;3.50;1.00;;;;;;5070610;28;20419;-69
2021/03/02 04:24:02;;;;;;;0.00;0.00;;;3.50;1.00;;;;;;5070992;28;20415;-69
2021/03/02 04:26:29;;;;;;;0.00;0.00;;;3.50;1.00;;;;;;5070921;28;20411;-69
2021/03/02 04:28:55;;;;;;;0.00;0.00;;;3.50;1.00;;;;;;5070695;28;20412;-69
2021/03/02 04:31:21;;;;;;;0.00;0.00;;;3.50;1.00;;;;;;5070752;28;20419;-70
2021/03/02 04:33:47;;;;;;;0.00;0.00;;;3.60;1.00;;;;;;5070656;28;20415;-69
2021/03/02 04:36:13;;;;;;;0.00;0.00;;;3.70;99.90;;;;;;5071885;28;20516;-69
2021/03/02 04:38:40;;;;;;;0.00;0.00;;;3.60;99.90;;;;;;5070565;28;20484;-69
2021/03/02 04:41:06;;;;;;;0.00;0.00;;;3.40;99.90;;;;;;5070458;28;20761;-70
2021/03/02 04:43:33;;;;;;;0.00;0.00;;;3.40;99.90;;;;;;5070462;28;20827;-70
2021/03/02 04:45:59;;;;;;;0.00;0.00;;;3.30;99.90;;;;;;5070870;28;20407;-70
2021/03/02 04:48:25;;;;;;;0.00;0.00;;;3.30;99.90;;;;;;5072395;28;20403;-70
2021/03/02 04:50:51;;;;;;;0.00;0.00;;;3.30;99.90;;;;;;5074360;28;20418;-69
2021/03/02 04:53:18;;;;;;;0.00;0.00;;;3.30;99.90;;;;;;5074794;28;20492;-69
2021/03/02 04:55:44;;;;;;;0.00;0.00;;;3.30;99.90;;;;;;5074479;28;20414;-69
2021/03/02 04:58:10;;;;;;;0.00;0.00;;;3.30;99.90;;;;;;5074516;28;20427;-69
2021/03/02 05:00:37;;;;;;;0.00;0.00;;;3.30;99.90;;;;;;5074630;28;20458;-69
2021/03/02 05:03:03;;;;;;;0.00;0.00;;;3.30;99.90;;;;;;5074246;28;20415;-69
2021/03/02 05:05:29;;;;;;;0.00;0.00;;;3.30;99.90;;;;;;5072960;28;20404;-69
2021/03/02 05:07:56;;;;;;;0.00;0.00;;;3.30;99.90;;;;;;5073364;28;20460;-70
2021/03/02 05:10:22;;;;;;;0.00;0.00;;;3.30;99.90;;;;;;5074870;28;20422;-69
2021/03/02 05:12:48;;;;;;;0.00;0.00;;;3.20;99.90;;;;;;5073913;28;20427;-69
2021/03/02 05:15:15;;;;;;;0.00;0.00;;;3.20;99.90;;;;;;5074392;28;20415;-69
2021/03/02 05:17:42;;;;;;;0.00;0.00;;;3.10;99.90;;;;;;5074176;28;20476;-69
2021/03/02 05:20:10;;;;;;;0.00;0.00;;;3.10;99.90;;;;;;5073909;28;20472;-69
2021/03/02 05:22:36;;;;;;;0.00;0.00;;;3.10;99.90;;;;;;5073752;28;20419;-69
2021/03/02 05:25:02;;;;;;;0.00;0.00;;;3.00;99.90;;;;;;5073173;28;20465;-72
2021/03/02 05:27:29;;;;;;;0.00;0.00;;;2.90;99.90;;;;;;5073369;28;21008;-71
2021/03/02 05:29:55;;;;;;;0.00;0.00;;;2.80;99.90;;;;;;5075066;28;20439;-74
2021/03/02 05:32:21;;;;;;;0.00;0.00;;;2.70;99.90;;;;;;5073786;28;20438;-74
2021/03/02 05:34:49;;;;;;;0.00;0.00;;;2.70;99.90;;;;;;5073982;28;20473;-74
2021/03/02 05:37:15;;;;;;;0.00;0.00;;;2.60;99.90;;;;;;5073608;28;20411;-74
2021/03/02 05:39:41;;;;;;;0.00;0.00;;;2.50;99.90;;;;;;5073623;28;20846;-74
2021/03/02 05:42:08;;;;;;;0.00;0.00;;;2.50;99.90;;;;;;5073466;28;20780;-74
2021/03/02 05:44:34;;;;;;;0.00;0.00;;;2.50;99.90;;;;;;5074016;28;20419;-75
2021/03/02 05:47:01;;;;;;;0.00;0.00;;;2.40;99.90;;;;;;5073630;28;20414;-72
2021/03/02 05:49:27;;;;;;;0.00;0.00;;;2.40;99.90;;;;;;5073825;28;20408;-73
2021/03/02 05:51:55;;;;;;;0.00;0.00;;;2.40;99.90;;;;;;5073502;28;20419;-73
2021/03/02 05:54:22;;;;;;;0.00;0.00;;;2.50;99.90;;;;;;5072924;28;20420;-73
2021/03/02 05:56:48;;;;;;;0.00;0.00;;;2.60;99.90;;;;;;5073739;28;20481;-74
2021/03/02 05:59:14;;;;;;;0.00;0.00;;;2.70;99.90;;;;;;5072531;28;20423;-74
2021/03/02 06:01:40;;;;;;;0.00;0.00;;;2.70;99.90;;;;;;5072723;28;20967;-74
2021/03/02 06:04:12;;;;;;;0.00;0.00;;;2.90;99.90;;;;;;5078792;28;20430;-74
2021/03/02 06:06:38;;;;;;;0.00;0.00;;;2.90;99.90;;;;;;5075694;28;20892;-73
2021/03/02 06:09:06;;;;;;;0.00;0.00;;;3.10;99.90;;;;;;5073372;28;20408;-73
2021/03/02 06:11:34;;;;;;;0.00;0.00;;;3.20;99.90;;;;;;5072811;28;20423;-74
2021/03/02 06:14:19;;;;;;;0.00;0.00;;;3.30;99.90;;;;;;5073117;28;20823;-73
2021/03/02 06:16:47;;;;;;;0.00;0.00;;;3.40;99.90;;;;;;5072964;28;20403;-73
2021/03/02 06:19:13;;;;;;;0.00;0.00;;;3.40;99.90;;;;;;5073078;28;20946;-74
2021/03/02 06:21:40;;;;;;;0.00;0.00;;;3.40;99.90;;;;;;5071447;28;20977;-74
2021/03/02 06:24:08;;;;;;;0.00;0.00;;;3.50;99.90;;;;;;5075401;28;20451;-69
2021/03/02 06:26:36;;;;;;;0.00;0.00;;;3.50;99.90;;;;;;5072470;28;20476;-69
2021/03/02 06:29:13;;;;;;;0.00;0.00;;;3.50;99.90;;;;;;5072765;28;20423;-68
2021/03/02 06:31:40;;;;;;;0.00;0.00;;;3.60;99.90;;;;;;5072516;28;20495;-68
2021/03/02 06:34:10;;;;;;;0.00;0.00;;;3.70;99.90;;;;;;5073166;28;20453;-71
2021/03/02 06:36:37;;;;;;;0.00;0.00;;;3.80;99.90;;;;;;5082455;28;20423;-70
2021/03/02 06:39:39;;;;;;;0.00;0.00;;;3.90;99.90;;;;;;5072207;28;20427;-71
2021/03/02 06:42:14;;;;;;;0.00;0.00;;;4.00;99.90;;;;;;5010672;28;20520;-70
2021/03/02 06:44:41;;;;;;;0.00;0.00;;;4.00;99.90;;;;;;5010208;28;20436;-70
2021/03/02 06:47:08;;;;;;;0.00;0.00;;;3.90;99.90;;;;;;5042009;28;20420;-70
2021/03/02 06:49:42;;;;;;;0.00;0.00;;;3.80;99.90;;;;;;5071918;28;20414;-68
2021/03/02 06:52:13;;;;;;;0.00;0.00;;;3.80;99.90;;;;;;5071258;28;20422;-67
2021/03/02 06:54:40;;;;;;;0.00;0.00;;;3.90;99.90;;;;;;5071553;28;20892;-68
2021/03/02 06:57:06;;;;;;;0.00;0.00;;;4.00;99.90;;;;;;5071611;28;20485;-69
2021/03/02 06:59:32;;;;;;;0.00;0.00;;;4.10;99.90;;;;;;5071743;28;20485;-68
2021/03/02 07:02:00;;;;;;;0.00;0.00;;;4.20;99.90;;;;;;5071795;28;20424;-69
2021/03/02 07:04:29;;;;;;;0.00;0.00;;;4.20;99.90;;;;;;5071059;28;20416;-68
2021/03/02 07:06:57;;;;;;;0.00;0.00;;;4.20;99.90;;;;;;5071759;28;20500;-69
2021/03/02 07:09:24;;;;;;;0.00;0.00;;;4.20;99.90;;;;;;5071433;28;20506;-70
2021/03/02 07:11:53;;;;;;;0.00;0.00;;;4.20;99.90;;;;;;5071972;28;20811;-69
2021/03/02 07:14:19;;;;;;;0.00;0.00;;;4.40;99.90;;;;;;5071458;28;20469;-67
2021/03/02 07:16:48;;;;;;;0.00;0.00;;;4.50;99.90;;;;;;5071592;28;20416;-66
2021/03/02 07:19:16;;;;;;;0.00;0.00;;;4.50;99.90;;;;;;5071205;28;20509;-66
2021/03/02 07:21:44;;;;;;;0.00;0.00;;;4.60;99.90;;;;;;5070958;28;20425;-68
2021/03/02 07:24:12;;;;;;;0.00;0.00;;;4.60;99.90;;;;;;5071028;28;20422;-67
2021/03/02 07:26:43;;;;;;;0.00;0.00;;;4.70;99.90;;;;;;5071583;28;20527;-69
2021/03/02 07:29:13;;;;;;;0.00;0.00;;;4.90;99.90;;;;;;5072008;28;20470;-69
2021/03/02 07:31:41;;;;;;;0.00;0.00;;;5.40;99.90;;;;;;5071273;28;20753;-70
2021/03/02 07:34:09;;;;;;;0.00;0.00;;;5.70;99.90;;;;;;5080644;28;20416;-66
2021/03/02 07:36:37;;;;;;;0.00;0.00;;;6.00;99.90;;;;;;5077121;28;20419;-66
2021/03/02 07:39:21;;;;;;;0.00;0.00;;;6.20;99.90;;;;;;5084822;28;20954;-66
2021/03/02 07:41:49;;;;;;;0.00;0.00;;;6.20;99.90;;;;;;5106119;28;20437;-68
2021/03/02 07:44:16;;;;;;;0.00;0.00;;;6.20;99.90;;;;;;5099931;28;20437;-67
2021/03/02 07:46:53;;;;;;;0.00;0.00;;;6.10;99.90;;;;;;5095934;28;20402;-67
2021/03/02 07:49:38;;;;;;;0.00;0.00;;;6.10;99.90;;;;;;5091175;28;20422;-67
2021/03/02 07:52:21;;;;;;;0.00;0.00;;;6.30;99.90;;;;;;5090937;28;20422;-68
2021/03/02 07:54:48;;;;;;;0.00;0.00;;;6.30;99.90;;;;;;5091327;28;20432;-71
2021/03/02 07:57:25;;;;;;;0.00;0.00;;;6.50;99.90;;;;;;5090853;28;20414;-72
2021/03/02 08:00:24;;;;;;;0.00;0.00;;;6.70;99.90;;;;;;5091084;28;20430;-70
2021/03/02 08:03:17;;;;;;;0.00;0.00;;;6.90;99.90;;;;;;5090004;28;21084;-70
2021/03/02 08:05:43;;;;;;;0.00;0.00;;;7.10;99.90;;;;;;5090816;28;20417;-70
2021/03/02 08:08:28;;;;;;;0.00;0.00;;;7.40;99.90;;;;;;5090763;28;20410;-69
2021/03/02 08:10:56;;;;;;;0.00;0.00;;;7.60;99.90;;;;;;5090701;28;20429;-70
2021/03/02 08:13:33;;;;;;;0.00;0.00;;;7.80;99.90;;;;;;5090459;28;20406;-70
2021/03/02 08:16:01;;;;;;;0.00;0.00;;;8.00;99.90;;;;;;5090503;28;20479;-71
2021/03/02 08:18:32;;;;;;;0.00;0.00;;;8.20;99.90;;;;;;5090876;28;20495;-71
2021/03/02 08:21:20;;;;;;;0.00;0.00;;;8.20;99.90;;;;;;5090202;28;20412;-70
2021/03/02 08:23:54;;;;;;;0.00;0.00;;;8.50;99.90;;;;;;5085027;28;20429;-68
2021/03/02 08:26:30;;;;;;;0.00;0.00;;;8.70;99.90;;;;;;5090359;28;20474;-66
2021/03/02 08:29:12;;;;;;;0.00;0.00;;;8.80;99.90;;;;;;5090588;28;20432;-69
2021/03/02 08:31:42;;;;;;;0.00;0.00;;;9.00;99.90;;;;;;5090101;28;20426;-69
2021/03/02 08:34:09;;;;;;;0.00;0.00;;;9.20;99.90;;;;;;5090205;28;20550;-69
2021/03/02 08:36:37;;;;;;;0.00;0.00;;;9.30;99.90;;;;;;5090577;28;20763;-70
2021/03/02 08:39:10;;;;;;;0.00;0.00;;;9.50;99.90;;;;;;5089828;28;20849;-68
2021/03/02 08:41:38;;;;;;;0.00;0.00;;;9.60;99.90;;;;;;5090278;28;20425;-68
2021/03/02 08:44:05;;;;;;;0.00;0.00;;;9.70;99.90;;;;;;5090139;28;20418;-69
2021/03/02 08:46:33;;;;;;;0.00;0.00;;;9.80;99.90;;;;;;5090550;28;20432;-69
2021/03/02 08:49:08;;;;;;;0.00;0.00;;;9.90;99.90;;;;;;5090343;28;20443;-69
2021/03/02 08:51:34;;;;;;;0.00;0.00;;;10.00;99.90;;;;;;5089474;28;20462;-69
2021/03/02 08:54:00;;;;;;;0.00;0.00;;;9.90;99.90;;;;;;5090337;28;20414;-69
2021/03/02 08:56:27;;;;;;;0.00;0.00;;;9.90;99.90;;;;;;5090334;28;20406;-71
2021/03/02 08:58:55;;;;;;;0.00;0.00;;;9.90;99.90;;;;;;5090149;28;20455;-72
2021/03/02 09:01:29;;;;;;;0.00;0.00;;;10.10;99.90;;;;;;5089828;28;20418;-72
2021/03/02 09:04:15;;;;;;;0.00;0.00;;;10.20;99.90;;;;;;5089766;28;20470;-71
2021/03/02 09:06:42;;;;;;;0.00;0.00;;;10.30;99.90;;;;;;5090473;28;20852;-68
2021/03/02 09:09:10;;;;;;;0.00;0.00;;;10.40;99.90;;;;;;5090212;28;20402;-68
2021/03/02 09:11:39;;;;;;;0.00;0.00;;;10.50;99.90;;;;;;5089759;28;20417;-68
2021/03/02 09:14:10;;;;;;;0.00;0.00;;;10.60;99.90;;;;;;5089799;28;20882;-68
2021/03/02 09:16:38;;;;;;;0.00;0.00;;;10.70;99.90;;;;;;5089988;28;20832;-66
2021/03/02 09:19:15;;;;;;;0.00;0.00;;;10.70;99.90;;;;;;5090092;28;20936;-66
2021/03/02 09:21:44;;;;;;;0.00;0.00;;;10.80;99.90;;;;;;5089647;28;20414;-66
2021/03/02 09:24:15;;;;;;;0.00;0.00;;;10.90;99.90;;;;;;5089893;28;20429;-66
2021/03/02 09:26:50;;;;;;;0.00;0.00;;;11.00;99.90;;;;;;5089790;28;20812;-66
2021/03/02 09:29:16;;;;;;;0.00;0.00;;;11.10;99.90;;;;;;5090126;28;20471;-68
2021/03/02 09:31:43;;;;;;;0.00;0.00;;;11.30;99.90;;;;;;5089703;28;20422;-67
2021/03/02 09:34:11;;;;;;;0.00;0.00;;;11.50;99.90;;;;;;5089641;28;20405;-68
2021/03/02 09:36:37;;;;;;;0.00;0.00;;;11.60;99.90;;;;;;5093399;28;20402;-68
2021/03/02 09:39:22;;;;;;;0.00;0.00;;;11.70;99.90;;;;;;5093442;28;20467;-67
2021/03/02 09:41:48;;;;;;;0.00;0.00;;;11.80;99.90;;;;;;5093623;28;20475;-69
2021/03/02 09:44:16;;;;;;;0.00;0.00;;;11.90;99.90;;;;;;5093266;28;20406;-69
2021/03/02 09:46:42;;;;;;;0.00;0.00;;;12.10;99.90;;;;;;5093691;28;20413;-68
2021/03/02 09:49:10;;;;;;;0.00;0.00;;;12.10;99.90;;;;;;5093144;28;20484;-68
2021/03/02 09:51:36;;;;;;;0.00;0.00;;;12.10;99.90;;;;;;5092582;28;20418;-69
2021/03/02 09:54:13;;;;;;;0.00;0.00;;;12.20;99.90;;;;;;5092991;28;20467;-69
2021/03/02 09:56:43;;;;;;;0.00;0.00;;;12.40;99.90;;;;;;5093301;28;20405;-69
2021/03/02 09:59:09;;;;;;;0.00;0.00;;;12.50;99.90;;;;;;5093284;28;20479;-69
2021/03/02 10:01:36;;;;;;;0.00;0.00;;;12.60;99.90;;;;;;5092823;28;20410;-68
2021/03/02 10:04:09;;;;;;;0.00;0.00;;;12.70;99.90;;;;;;5092792;28;20410;-67
2021/03/02 10:06:37;;;;;;;0.00;0.00;;;12.80;99.90;;;;;;5092790;28;20944;-69
2021/03/02 10:09:04;;;;;;;0.00;0.00;;;13.00;99.90;;;;;;5092958;28;20422;-66
2021/03/02 10:11:30;;;;;;;0.00;0.00;;;12.90;99.90;;;;;;5092743;28;20410;-65
2021/03/02 10:13:58;;;;;;;0.00;0.00;;;12.90;99.90;;;;;;5092609;28;20413;-66
2021/03/02 10:16:29;;;;;;;0.00;0.00;;;13.00;99.90;;;;;;5092880;28;20406;-67
2021/03/02 10:18:58;;;;;;;0.00;0.00;;;13.10;99.90;;;;;;5092485;28;20479;-67
2021/03/02 10:21:25;;;;;;;0.00;0.00;;;13.20;99.90;;;;;;5092129;28;20413;-67
2021/03/02 10:23:54;;;;;;;0.00;0.00;;;13.40;99.90;;;;;;5092643;28;20418;-67
2021/03/02 10:26:22;;;;;;;0.00;0.00;;;13.60;99.90;;;;;;5092692;28;20414;-65
2021/03/02 10:28:49;;;;;;;0.00;0.00;;;13.80;99.90;;;;;;5092637;28;20415;-66
2021/03/02 10:31:15;;;;;;;0.00;0.00;;;13.80;99.90;;;;;;5092474;28;20481;-67
2021/03/02 10:33:41;;;;;;;0.00;0.00;;;13.90;99.90;;;;;;5091827;28;20907;-66
2021/03/02 10:36:17;;;;;;;0.00;0.00;;;14.00;99.90;;;;;;5092596;28;21079;-66
2021/03/02 10:38:43;;;;;;;0.00;0.00;;;14.20;99.90;;;;;;5092266;28;20458;-66
2021/03/02 10:41:10;;;;;;;0.00;0.00;;;14.20;99.90;;;;;;5092509;28;20760;-65
2021/03/02 10:43:36;;;;;;;0.00;0.00;;;14.30;99.90;;;;;;5092074;28;20414;-69
2021/03/02 10:46:02;;;;;;;0.00;0.00;;;14.40;99.90;;;;;;5091910;28;20414;-70
2021/03/02 10:48:28;;;;;;;0.00;0.00;;;14.50;99.90;;;;;;5094140;28;20436;-69
2021/03/02 10:50:55;;;;;;;0.00;0.00;;;14.60;99.90;;;;;;5094074;28;20405;-69
2021/03/02 10:53:21;;;;;;;0.00;0.00;;;14.70;99.90;;;;;;5092027;28;20409;-68
2021/03/02 10:55:47;;;;;;;0.00;0.00;;;14.70;99.90;;;;;;5092242;28;20413;-67
2021/03/02 10:58:14;;;;;;;0.00;0.00;;;14.80;99.90;;;;;;5092199;28;20460;-67
2021/03/02 11:00:40;;;;;;;0.00;0.00;;;14.90;99.90;;;;;;5091942;28;20463;-66
2021/03/02 11:03:06;;;;;;;0.00;0.00;;;14.90;99.90;;;;;;5091588;28;20410;-70
2021/03/02 11:05:34;;;;;;;0.00;0.00;;;15.10;99.90;;;;;;5092116;28;20908;-67
2021/03/02 11:08:00;;;;;;;0.00;0.00;;;15.30;99.90;;;;;;5092340;28;20421;-68
2021/03/02 11:10:27;;;;;;;0.00;0.00;;;15.20;99.90;;;;;;5092012;28;20417;-68
2021/03/02 11:12:53;;;;;;;0.00;0.00;;;15.10;99.90;;;;;;5091741;28;20418;-68
2021/03/02 11:15:20;;;;;;;0.00;0.00;;;15.10;99.90;;;;;;5091359;28;20414;-68
2021/03/02 11:17:46;;;;;;;0.00;0.00;;;15.10;99.90;;;;;;5092068;28;20413;-68
2021/03/02 11:20:13;;;;;;;0.00;0.00;;;15.20;99.90;;;;;;5091759;28;20423;-68
2021/03/02 11:22:39;;;;;;;0.00;0.00;;;15.30;99.90;;;;;;5091048;28;20912;-69
2021/03/02 11:25:07;;;;;;;0.00;0.00;;;15.30;99.90;;;;;;5091662;28;20421;-69
2021/03/02 11:27:33;;;;;;;0.00;0.00;;;15.20;99.90;;;;;;5091307;28;21081;-69
2021/03/02 11:29:59;;;;;;;0.00;0.00;;;15.20;99.90;;;;;;5091528;28;20410;-70
2021/03/02 11:32:26;;;;;;;0.00;0.00;;;15.30;99.90;;;;;;5091416;28;20414;-71
2021/03/02 11:34:52;;;;;;;0.00;0.00;;;15.50;99.90;;;;;;5091304;28;20902;-68
2021/03/02 11:37:18;;;;;;;0.00;0.00;;;16.40;99.90;;;;;;5091268;28;20913;-69
2021/03/02 11:39:44;;;;;;;0.00;0.00;;;15.40;99.90;;;;;;5091150;28;20422;-67
2021/03/02 11:42:11;;;;;;;0.00;0.00;;;16.10;99.90;;;;;;5091628;28;20410;-67
2021/03/02 11:44:37;;;;;;;0.00;0.00;;;16.00;99.90;;;;;;5094757;28;20406;-66
2021/03/02 11:47:04;;;;;;;0.00;0.00;;;15.70;99.90;;;;;;5092866;28;20417;-66
2021/03/02 11:49:31;;;;;;;0.00;0.00;;;15.80;99.90;;;;;;5094428;28;20453;-69
2021/03/02 11:51:57;;;;;;;0.00;0.00;;;15.90;99.90;;;;;;5092035;28;20413;-70
2021/03/02 11:54:23;;;;;;;0.00;0.00;;;15.90;99.90;;;;;;5092576;28;20420;-66
2021/03/02 11:56:49;;;;;;;0.00;0.00;;;16.10;99.90;;;;;;5092355;28;20405;-69
2021/03/02 11:59:15;;;;;;;0.00;0.00;;;16.20;99.90;;;;;;5092343;28;20422;-67
2021/03/02 12:01:41;;;;;;;0.00;0.00;;;16.20;99.90;;;;;;5091036;28;20410;-68
2021/03/02 12:04:08;;;;;;;0.00;0.00;;;16.20;99.90;;;;;;5090836;28;20417;-67
2021/03/02 12:06:35;;;;;;;0.00;0.00;;;16.30;99.90;;;;;;5091123;28;20755;-70
2021/03/02 12:09:01;;;;;;;0.00;0.00;;;16.50;99.90;;;;;;5090852;28;20476;-68
2021/03/02 12:11:28;;;;;;;0.00;0.00;;;16.60;99.90;;;;;;5090587;28;20414;-69
2021/03/02 12:13:54;;;;;;;0.00;0.00;;;16.40;99.90;;;;;;5091032;28;20422;-68
2021/03/02 12:16:21;;;;;;;0.00;0.00;;;16.40;99.90;;;;;;5090214;28;21520;-69
2021/03/02 12:18:47;;;;;;;0.00;0.00;;;16.60;99.90;;;;;;5090612;28;20991;-68
2021/03/02 12:21:13;;;;;;;0.00;0.00;;;16.60;99.90;;;;;;5090731;28;20405;-67
2021/03/02 12:23:40;;;;;;;0.00;0.00;;;16.50;99.90;;;;;;5090321;28;20414;-68
2021/03/02 12:26:06;;;;;;;0.00;0.00;;;16.50;99.90;;;;;;5090419;28;20467;-67
2021/03/02 12:28:33;;;;;;;0.00;0.00;;;16.70;99.90;;;;;;5090910;28;20471;-71
2021/03/02 12:30:59;;;;;;;0.00;0.00;;;16.70;99.90;;;;;;5091189;28;20410;-68
2021/03/02 12:33:25;;;;;;;0.00;0.00;;;16.70;99.90;;;;;;5090423;28;20413;-70
2021/03/02 12:35:51;;;;;;;0.00;0.00;;;16.70;99.90;;;;;;5090921;28;20410;-70
2021/03/02 12:38:17;;;;;;;0.00;0.00;;;16.80;99.90;;;;;;5090581;28;20421;-70
2021/03/02 12:40:44;;;;;;;0.00;0.00;;;16.70;99.90;;;;;;5090994;28;20418;-69
2021/03/02 12:43:11;;;;;;;0.00;0.00;;;16.60;99.90;;;;;;5090519;28;20414;-68
2021/03/02 12:45:37;;;;;;;0.00;0.00;;;16.60;99.90;;;;;;5090540;28;20413;-69
2021/03/02 12:48:04;;;;;;;0.00;0.00;;;16.70;99.90;;;;;;5090697;28;20409;-72
2021/03/02 12:50:30;;;;;;;0.00;0.00;;;16.90;99.90;;;;;;5090102;28;20513;-71
2021/03/02 12:52:57;;;;;;;0.00;0.00;;;16.80;99.90;;;;;;5089271;28;21107;-68
2021/03/02 12:55:23;;;;;;;0.00;0.00;;;16.90;99.90;;;;;;5090135;28;20786;-67
2021/03/02 12:57:50;;;;;;;0.00;0.00;;;16.90;99.90;;;;;;5090428;28;20409;-68
2021/03/02 13:00:17;;;;;;;0.00;0.00;;;16.70;99.90;;;;;;5090200;28;20421;-68
2021/03/02 13:02:44;;;;;;;0.00;0.00;;;16.60;99.90;;;;;;5089405;28;20443;-67
2021/03/02 13:05:11;;;;;;;0.00;0.00;;;16.70;99.90;;;;;;5090285;28;20410;-68